sensor_id;sensor_type;location;lat;lon;timestamp;P1;durP1;ratioP1;P2;durP2;ratioP2
52248;SDS011;38541;48.130;8.378;2022-09-13T00:01:21;1.40;;;1.30;;
52248;SDS011;38541;48.130;8.378;2022-09-13T00:03:47;1.88;;;1.58;;
52248;SDS011;38541;48.130;8.378;2022-09-13T00:06:16;1.58;;;1.48;;
52248;SDS011;38541;48.130;8.378;2022-09-13T00:08:44;1.70;;;1.60;;
52248;SDS011;38541;48.130;8.378;2022-09-13T00:11:16;1.58;;;1.48;;
52248;SDS011;38541;48.130;8.378;2022-09-13T00:13:45;2.63;;;1.80;;
52248;SDS011;38541;48.130;8.378;2022-09-13T00:16:12;1.75;;;1.48;;
52248;SDS011;38541;48.130;8.378;2022-09-13T00:18:41;1.50;;;1.40;;
52248;SDS011;38541;48.130;8.378;2022-09-13T00:21:12;1.67;;;1.58;;
52248;SDS011;38541;48.130;8.378;2022-09-13T00:23:43;1.95;;;1.73;;
52248;SDS011;38541;48.130;8.378;2022-09-13T00:26:18;1.52;;;1.42;;
52248;SDS011;38541;48.130;8.378;2022-09-13T00:31:18;3.30;;;1.70;;
52248;SDS011;38541;48.130;8.378;2022-09-13T00:33:46;1.77;;;1.67;;
52248;SDS011;38541;48.130;8.378;2022-09-13T00:36:12;1.58;;;1.48;;
52248;SDS011;38541;48.130;8.378;2022-09-13T00:38:40;1.63;;;1.50;;
52248;SDS011;38541;48.130;8.378;2022-09-13T00:41:11;1.55;;;1.45;;
52248;SDS011;38541;48.130;8.378;2022-09-13T00:46:12;1.85;;;1.75;;
52248;SDS011;38541;48.130;8.378;2022-09-13T00:48:46;3.25;;;1.58;;
52248;SDS011;38541;48.130;8.378;2022-09-13T00:51:16;1.55;;;1.45;;
52248;SDS011;38541;48.130;8.378;2022-09-13T00:53:45;1.60;;;1.50;;
52248;SDS011;38541;48.130;8.378;2022-09-13T00:56:21;1.60;;;1.50;;
52248;SDS011;38541;48.130;8.378;2022-09-13T00:58:57;1.98;;;1.88;;
52248;SDS011;38541;48.130;8.378;2022-09-13T01:01:32;1.40;;;1.30;;
52248;SDS011;38541;48.130;8.378;2022-09-13T01:04:06;2.15;;;1.55;;
52248;SDS011;38541;48.130;8.378;2022-09-13T01:06:37;1.63;;;1.52;;
52248;SDS011;38541;48.130;8.378;2022-09-13T01:09:05;2.00;;;1.80;;
52248;SDS011;38541;48.130;8.378;2022-09-13T01:13:59;2.25;;;1.27;;
52248;SDS011;38541;48.130;8.378;2022-09-13T01:16:26;1.90;;;1.63;;
52248;SDS011;38541;48.130;8.378;2022-09-13T01:18:53;1.65;;;1.55;;
52248;SDS011;38541;48.130;8.378;2022-09-13T01:35:28;1.40;;;1.30;;
52248;SDS011;38541;48.130;8.378;2022-09-13T01:38:12;2.55;;;1.20;;
52248;SDS011;38541;48.130;8.378;2022-09-13T01:41:00;1.58;;;1.48;;
52248;SDS011;38541;48.130;8.378;2022-09-13T01:44:42;1.55;;;1.45;;
52248;SDS011;38541;48.130;8.378;2022-09-13T01:52:28;1.75;;;1.50;;
52248;SDS011;38541;48.130;8.378;2022-09-13T02:01:02;1.63;;;1.52;;
52248;SDS011;38541;48.130;8.378;2022-09-13T02:03:33;1.50;;;1.40;;
52248;SDS011;38541;48.130;8.378;2022-09-13T02:06:10;1.50;;;1.40;;
52248;SDS011;38541;48.130;8.378;2022-09-13T02:08:44;1.42;;;1.30;;
52248;SDS011;38541;48.130;8.378;2022-09-13T02:11:15;1.27;;;1.17;;
52248;SDS011;38541;48.130;8.378;2022-09-13T02:13:47;1.30;;;1.20;;
52248;SDS011;38541;48.130;8.378;2022-09-13T02:16:23;1.17;;;1.10;;
52248;SDS011;38541;48.130;8.378;2022-09-13T02:18:56;1.48;;;1.38;;
52248;SDS011;38541;48.130;8.378;2022-09-13T02:21:27;2.97;;;1.42;;
52248;SDS011;38541;48.130;8.378;2022-09-13T02:23:59;1.13;;;1.10;;
52248;SDS011;38541;48.130;8.378;2022-09-13T02:26:28;1.30;;;1.30;;
52248;SDS011;38541;48.130;8.378;2022-09-13T02:28:58;1.30;;;1.20;;
52248;SDS011;38541;48.130;8.378;2022-09-13T02:31:32;1.30;;;1.20;;
52248;SDS011;38541;48.130;8.378;2022-09-13T02:34:03;1.42;;;1.33;;
52248;SDS011;38541;48.130;8.378;2022-09-13T02:36:37;1.45;;;1.10;;
52248;SDS011;38541;48.130;8.378;2022-09-13T02:39:12;1.13;;;1.02;;
52248;SDS011;38541;48.130;8.378;2022-09-13T02:44:53;1.55;;;1.10;;
52248;SDS011;38541;48.130;8.378;2022-09-13T02:47:39;1.55;;;1.33;;
52248;SDS011;38541;48.130;8.378;2022-09-13T02:58:31;1.02;;;1.02;;
52248;SDS011;38541;48.130;8.378;2022-09-13T03:01:07;1.25;;;1.20;;
52248;SDS011;38541;48.130;8.378;2022-09-13T03:03:34;1.70;;;1.10;;
52248;SDS011;38541;48.130;8.378;2022-09-13T03:06:00;1.23;;;1.23;;
52248;SDS011;38541;48.130;8.378;2022-09-13T03:08:27;0.90;;;0.90;;
52248;SDS011;38541;48.130;8.378;2022-09-13T03:11:12;1.10;;;1.10;;
52248;SDS011;38541;48.130;8.378;2022-09-13T03:17:02;1.20;;;0.88;;
52248;SDS011;38541;48.130;8.378;2022-09-13T03:22:47;1.60;;;1.13;;
52248;SDS011;38541;48.130;8.378;2022-09-13T03:30:48;1.00;;;1.00;;
52248;SDS011;38541;48.130;8.378;2022-09-13T03:36:13;1.05;;;0.90;;
52248;SDS011;38541;48.130;8.378;2022-09-13T03:38:54;1.83;;;1.65;;
52248;SDS011;38541;48.130;8.378;2022-09-13T03:41:30;1.45;;;1.00;;
52248;SDS011;38541;48.130;8.378;2022-09-13T03:44:02;1.15;;;1.15;;
52248;SDS011;38541;48.130;8.378;2022-09-13T03:46:40;1.13;;;0.90;;
52248;SDS011;38541;48.130;8.378;2022-09-13T03:49:10;2.40;;;1.17;;
52248;SDS011;38541;48.130;8.378;2022-09-13T03:51:40;1.67;;;1.20;;
52248;SDS011;38541;48.130;8.378;2022-09-13T03:54:13;1.92;;;1.42;;
52248;SDS011;38541;48.130;8.378;2022-09-13T03:56:43;1.60;;;1.50;;
52248;SDS011;38541;48.130;8.378;2022-09-13T03:59:29;1.60;;;1.50;;
52248;SDS011;38541;48.130;8.378;2022-09-13T04:01:56;1.48;;;1.48;;
52248;SDS011;38541;48.130;8.378;2022-09-13T04:04:22;2.95;;;1.63;;
52248;SDS011;38541;48.130;8.378;2022-09-13T04:06:49;1.48;;;1.38;;
52248;SDS011;38541;48.130;8.378;2022-09-13T04:09:15;1.10;;;1.00;;
52248;SDS011;38541;48.130;8.378;2022-09-13T04:11:42;1.42;;;1.15;;
52248;SDS011;38541;48.130;8.378;2022-09-13T04:14:08;0.80;;;0.80;;
52248;SDS011;38541;48.130;8.378;2022-09-13T04:16:35;1.20;;;1.10;;
52248;SDS011;38541;48.130;8.378;2022-09-13T04:19:02;0.80;;;0.80;;
52248;SDS011;38541;48.130;8.378;2022-09-13T04:21:29;5.60;;;5.13;;
52248;SDS011;38541;48.130;8.378;2022-09-13T04:23:56;7.28;;;6.68;;
52248;SDS011;38541;48.130;8.378;2022-09-13T04:26:23;4.90;;;4.57;;
52248;SDS011;38541;48.130;8.378;2022-09-13T04:28:51;3.00;;;2.80;;
52248;SDS011;38541;48.130;8.378;2022-09-13T04:31:18;2.38;;;2.22;;
52248;SDS011;38541;48.130;8.378;2022-09-13T04:33:45;1.50;;;1.40;;
52248;SDS011;38541;48.130;8.378;2022-09-13T04:36:11;1.40;;;1.30;;
52248;SDS011;38541;48.130;8.378;2022-09-13T04:38:38;1.38;;;1.27;;
52248;SDS011;38541;48.130;8.378;2022-09-13T04:41:04;2.38;;;2.17;;
52248;SDS011;38541;48.130;8.378;2022-09-13T04:43:31;4.03;;;1.92;;
52248;SDS011;38541;48.130;8.378;2022-09-13T04:46:00;1.20;;;1.20;;
52248;SDS011;38541;48.130;8.378;2022-09-13T04:48:27;1.52;;;1.42;;
52248;SDS011;38541;48.130;8.378;2022-09-13T04:50:59;1.08;;;0.82;;
52248;SDS011;38541;48.130;8.378;2022-09-13T04:53:26;2.78;;;1.30;;
52248;SDS011;38541;48.130;8.378;2022-09-13T04:55:58;1.30;;;1.20;;
52248;SDS011;38541;48.130;8.378;2022-09-13T04:58:26;1.00;;;1.00;;
52248;SDS011;38541;48.130;8.378;2022-09-13T05:00:52;0.90;;;0.90;;
52248;SDS011;38541;48.130;8.378;2022-09-13T05:03:22;1.20;;;1.10;;
52248;SDS011;38541;48.130;8.378;2022-09-13T05:05:48;1.55;;;1.33;;
52248;SDS011;38541;48.130;8.378;2022-09-13T05:08:15;1.23;;;1.20;;
52248;SDS011;38541;48.130;8.378;2022-09-13T05:10:41;1.35;;;1.25;;
52248;SDS011;38541;48.130;8.378;2022-09-13T05:13:08;1.40;;;1.30;;
52248;SDS011;38541;48.130;8.378;2022-09-13T05:15:34;1.67;;;1.58;;
52248;SDS011;38541;48.130;8.378;2022-09-13T05:18:01;2.72;;;1.83;;
52248;SDS011;38541;48.130;8.378;2022-09-13T05:20:27;2.50;;;1.70;;
52248;SDS011;38541;48.130;8.378;2022-09-13T05:22:54;3.00;;;1.50;;
52248;SDS011;38541;48.130;8.378;2022-09-13T05:25:21;2.28;;;2.08;;
52248;SDS011;38541;48.130;8.378;2022-09-13T05:27:51;2.67;;;2.22;;
52248;SDS011;38541;48.130;8.378;2022-09-13T05:30:17;2.78;;;2.40;;
52248;SDS011;38541;48.130;8.378;2022-09-13T05:32:44;2.53;;;2.42;;
52248;SDS011;38541;48.130;8.378;2022-09-13T05:35:10;1.55;;;1.45;;
52248;SDS011;38541;48.130;8.378;2022-09-13T05:37:38;1.80;;;1.70;;
52248;SDS011;38541;48.130;8.378;2022-09-13T05:40:05;1.08;;;1.08;;
52248;SDS011;38541;48.130;8.378;2022-09-13T05:42:37;1.70;;;1.60;;
52248;SDS011;38541;48.130;8.378;2022-09-13T05:45:04;1.90;;;1.35;;
52248;SDS011;38541;48.130;8.378;2022-09-13T05:47:32;2.38;;;1.40;;
52248;SDS011;38541;48.130;8.378;2022-09-13T05:49:58;1.92;;;1.55;;
52248;SDS011;38541;48.130;8.378;2022-09-13T05:52:36;1.88;;;1.35;;
52248;SDS011;38541;48.130;8.378;2022-09-13T05:55:02;1.10;;;1.10;;
52248;SDS011;38541;48.130;8.378;2022-09-13T05:57:29;1.63;;;0.98;;
52248;SDS011;38541;48.130;8.378;2022-09-13T05:59:55;1.67;;;1.30;;
52248;SDS011;38541;48.130;8.378;2022-09-13T06:02:22;2.25;;;1.58;;
52248;SDS011;38541;48.130;8.378;2022-09-13T06:04:48;2.42;;;1.38;;
52248;SDS011;38541;48.130;8.378;2022-09-13T06:07:16;5.57;;;1.70;;
52248;SDS011;38541;48.130;8.378;2022-09-13T06:09:42;4.07;;;1.63;;
52248;SDS011;38541;48.130;8.378;2022-09-13T06:12:10;7.05;;;2.42;;
52248;SDS011;38541;48.130;8.378;2022-09-13T06:14:36;6.22;;;2.30;;
52248;SDS011;38541;48.130;8.378;2022-09-13T06:17:03;2.97;;;1.58;;
52248;SDS011;38541;48.130;8.378;2022-09-13T06:19:29;3.97;;;1.35;;
52248;SDS011;38541;48.130;8.378;2022-09-13T06:21:56;2.30;;;1.50;;
52248;SDS011;38541;48.130;8.378;2022-09-13T06:24:22;5.93;;;2.10;;
52248;SDS011;38541;48.130;8.378;2022-09-13T06:26:49;3.10;;;1.58;;
52248;SDS011;38541;48.130;8.378;2022-09-13T06:29:15;4.40;;;1.70;;
52248;SDS011;38541;48.130;8.378;2022-09-13T06:31:42;10.00;;;2.83;;
52248;SDS011;38541;48.130;8.378;2022-09-13T06:34:11;7.72;;;2.95;;
52248;SDS011;38541;48.130;8.378;2022-09-13T06:36:40;2.40;;;1.77;;
52248;SDS011;38541;48.130;8.378;2022-09-13T06:39:07;5.40;;;1.83;;
52248;SDS011;38541;48.130;8.378;2022-09-13T06:41:34;4.53;;;1.77;;
52248;SDS011;38541;48.130;8.378;2022-09-13T06:44:00;3.65;;;1.55;;
52248;SDS011;38541;48.130;8.378;2022-09-13T06:46:28;5.13;;;2.00;;
52248;SDS011;38541;48.130;8.378;2022-09-13T06:49:03;2.97;;;1.92;;
52248;SDS011;38541;48.130;8.378;2022-09-13T06:51:31;3.60;;;1.58;;
52248;SDS011;38541;48.130;8.378;2022-09-13T06:53:59;1.27;;;1.17;;
52248;SDS011;38541;48.130;8.378;2022-09-13T06:56:36;3.05;;;1.70;;
52248;SDS011;38541;48.130;8.378;2022-09-13T06:59:04;4.88;;;1.80;;
52248;SDS011;38541;48.130;8.378;2022-09-13T07:01:33;5.68;;;1.60;;
52248;SDS011;38541;48.130;8.378;2022-09-13T07:04:06;3.95;;;1.48;;
52248;SDS011;38541;48.130;8.378;2022-09-13T07:06:35;2.83;;;1.75;;
52248;SDS011;38541;48.130;8.378;2022-09-13T07:09:05;2.97;;;1.50;;
52248;SDS011;38541;48.130;8.378;2022-09-13T07:11:34;2.50;;;1.55;;
52248;SDS011;38541;48.130;8.378;2022-09-13T07:14:02;2.88;;;2.17;;
52248;SDS011;38541;48.130;8.378;2022-09-13T07:16:30;5.35;;;3.03;;
52248;SDS011;38541;48.130;8.378;2022-09-13T07:18:58;3.40;;;2.17;;
52248;SDS011;38541;48.130;8.378;2022-09-13T07:21:27;3.17;;;1.45;;
52248;SDS011;38541;48.130;8.378;2022-09-13T07:23:54;1.33;;;1.23;;
52248;SDS011;38541;48.130;8.378;2022-09-13T07:26:21;1.98;;;1.77;;
52248;SDS011;38541;48.130;8.378;2022-09-13T07:28:51;2.25;;;1.55;;
52248;SDS011;38541;48.130;8.378;2022-09-13T07:31:19;2.60;;;1.23;;
52248;SDS011;38541;48.130;8.378;2022-09-13T07:33:52;1.35;;;1.20;;
52248;SDS011;38541;48.130;8.378;2022-09-13T07:36:20;2.17;;;1.10;;
52248;SDS011;38541;48.130;8.378;2022-09-13T07:38:47;4.93;;;1.25;;
52248;SDS011;38541;48.130;8.378;2022-09-13T07:41:15;1.40;;;1.25;;
52248;SDS011;38541;48.130;8.378;2022-09-13T07:43:44;6.43;;;1.42;;
52248;SDS011;38541;48.130;8.378;2022-09-13T07:46:15;2.15;;;1.38;;
52248;SDS011;38541;48.130;8.378;2022-09-13T07:48:44;1.75;;;1.00;;
52248;SDS011;38541;48.130;8.378;2022-09-13T07:51:16;1.05;;;1.05;;
52248;SDS011;38541;48.130;8.378;2022-09-13T07:53:48;1.10;;;1.10;;
52248;SDS011;38541;48.130;8.378;2022-09-13T07:56:23;1.45;;;1.10;;
52248;SDS011;38541;48.130;8.378;2022-09-13T07:58:52;2.05;;;1.17;;
52248;SDS011;38541;48.130;8.378;2022-09-13T08:01:24;1.55;;;1.45;;
52248;SDS011;38541;48.130;8.378;2022-09-13T08:03:52;1.15;;;1.15;;
52248;SDS011;38541;48.130;8.378;2022-09-13T08:06:21;2.05;;;1.20;;
52248;SDS011;38541;48.130;8.378;2022-09-13T08:08:48;6.68;;;6.05;;
52248;SDS011;38541;48.130;8.378;2022-09-13T08:11:16;9.82;;;8.85;;
52248;SDS011;38541;48.130;8.378;2022-09-13T08:13:45;4.25;;;3.45;;
52248;SDS011;38541;48.130;8.378;2022-09-13T08:16:12;5.03;;;3.92;;
52248;SDS011;38541;48.130;8.378;2022-09-13T08:18:43;2.25;;;2.05;;
52248;SDS011;38541;48.130;8.378;2022-09-13T08:21:11;3.33;;;3.05;;
52248;SDS011;38541;48.130;8.378;2022-09-13T08:23:39;2.60;;;2.20;;
52248;SDS011;38541;48.130;8.378;2022-09-13T08:26:06;1.77;;;1.67;;
52248;SDS011;38541;48.130;8.378;2022-09-13T08:28:36;1.60;;;1.40;;
52248;SDS011;38541;48.130;8.378;2022-09-13T08:31:14;2.40;;;1.30;;
52248;SDS011;38541;48.130;8.378;2022-09-13T08:33:43;1.38;;;1.13;;
52248;SDS011;38541;48.130;8.378;2022-09-13T08:36:12;1.13;;;1.08;;
52248;SDS011;38541;48.130;8.378;2022-09-13T08:38:46;1.00;;;1.00;;
52248;SDS011;38541;48.130;8.378;2022-09-13T08:44:26;1.20;;;1.10;;
52248;SDS011;38541;48.130;8.378;2022-09-13T08:46:58;1.00;;;0.90;;
52248;SDS011;38541;48.130;8.378;2022-09-13T08:49:36;3.22;;;1.25;;
52248;SDS011;38541;48.130;8.378;2022-09-13T08:54:41;1.15;;;0.80;;
52248;SDS011;38541;48.130;8.378;2022-09-13T08:57:14;0.93;;;0.93;;
52248;SDS011;38541;48.130;8.378;2022-09-13T08:59:52;1.02;;;0.80;;
52248;SDS011;38541;48.130;8.378;2022-09-13T09:05:30;2.05;;;1.10;;
52248;SDS011;38541;48.130;8.378;2022-09-13T09:08:12;1.67;;;1.58;;
52248;SDS011;38541;48.130;8.378;2022-09-13T09:10:49;2.55;;;1.17;;
52248;SDS011;38541;48.130;8.378;2022-09-13T09:13:25;1.02;;;0.95;;
52248;SDS011;38541;48.130;8.378;2022-09-13T09:16:00;0.93;;;0.93;;
52248;SDS011;38541;48.130;8.378;2022-09-13T09:18:32;0.93;;;0.93;;
52248;SDS011;38541;48.130;8.378;2022-09-13T09:21:02;0.90;;;0.90;;
52248;SDS011;38541;48.130;8.378;2022-09-13T09:23:39;1.20;;;0.90;;
52248;SDS011;38541;48.130;8.378;2022-09-13T09:28:50;1.10;;;1.03;;
52248;SDS011;38541;48.130;8.378;2022-09-13T09:31:30;1.48;;;0.80;;
52248;SDS011;38541;48.130;8.378;2022-09-13T09:34:07;1.75;;;0.90;;
52248;SDS011;38541;48.130;8.378;2022-09-13T09:36:45;0.80;;;0.80;;
52248;SDS011;38541;48.130;8.378;2022-09-13T09:46:45;1.45;;;0.90;;
52248;SDS011;38541;48.130;8.378;2022-09-13T09:49:16;0.80;;;0.80;;
52248;SDS011;38541;48.130;8.378;2022-09-13T09:52:05;0.90;;;0.90;;
52248;SDS011;38541;48.130;8.378;2022-09-13T09:54:35;1.02;;;1.00;;
52248;SDS011;38541;48.130;8.378;2022-09-13T09:57:03;1.00;;;1.00;;
52248;SDS011;38541;48.130;8.378;2022-09-13T09:59:32;0.90;;;0.90;;
52248;SDS011;38541;48.130;8.378;2022-09-13T10:02:01;1.75;;;1.10;;
52248;SDS011;38541;48.130;8.378;2022-09-13T10:04:40;1.27;;;1.17;;
52248;SDS011;38541;48.130;8.378;2022-09-13T10:07:24;1.35;;;1.25;;
52248;SDS011;38541;48.130;8.378;2022-09-13T10:09:59;2.55;;;1.10;;
52248;SDS011;38541;48.130;8.378;2022-09-13T10:12:34;1.00;;;1.00;;
52248;SDS011;38541;48.130;8.378;2022-09-13T10:15:15;2.22;;;0.95;;
52248;SDS011;38541;48.130;8.378;2022-09-13T10:21:03;1.67;;;0.90;;
52248;SDS011;38541;48.130;8.378;2022-09-13T10:23:47;1.20;;;1.10;;
52248;SDS011;38541;48.130;8.378;2022-09-13T10:26:24;0.77;;;0.77;;
52248;SDS011;38541;48.130;8.378;2022-09-13T10:31:32;0.80;;;0.80;;
52248;SDS011;38541;48.130;8.378;2022-09-13T10:34:02;0.80;;;0.80;;
52248;SDS011;38541;48.130;8.378;2022-09-13T10:36:33;2.10;;;0.90;;
52248;SDS011;38541;48.130;8.378;2022-09-13T10:39:18;0.70;;;0.70;;
52248;SDS011;38541;48.130;8.378;2022-09-13T10:41:52;1.05;;;0.98;;
52248;SDS011;38541;48.130;8.378;2022-09-13T10:44:21;0.80;;;0.80;;
52248;SDS011;38541;48.130;8.378;2022-09-13T10:46:52;0.60;;;0.60;;
52248;SDS011;38541;48.130;8.378;2022-09-13T10:52:23;1.75;;;0.65;;
52248;SDS011;38541;48.130;8.378;2022-09-13T10:55:14;0.70;;;0.70;;
52248;SDS011;38541;48.130;8.378;2022-09-13T10:57:50;0.80;;;0.70;;
52248;SDS011;38541;48.130;8.378;2022-09-13T11:00:27;0.55;;;0.50;;
52248;SDS011;38541;48.130;8.378;2022-09-13T11:06:10;0.70;;;0.70;;
52248;SDS011;38541;48.130;8.378;2022-09-13T11:17:14;0.80;;;0.80;;
52248;SDS011;38541;48.130;8.378;2022-09-13T11:26:28;2.25;;;1.00;;
52248;SDS011;38541;48.130;8.378;2022-09-13T11:28:53;0.70;;;0.70;;
52248;SDS011;38541;48.130;8.378;2022-09-13T11:31:37;0.75;;;0.60;;
52248;SDS011;38541;48.130;8.378;2022-09-13T11:34:10;1.20;;;0.80;;
52248;SDS011;38541;48.130;8.378;2022-09-13T11:39:40;1.45;;;0.70;;
52248;SDS011;38541;48.130;8.378;2022-09-13T11:47:49;0.70;;;0.70;;
52248;SDS011;38541;48.130;8.378;2022-09-13T11:53:48;0.60;;;0.60;;
52248;SDS011;38541;48.130;8.378;2022-09-13T11:56:32;0.75;;;0.75;;
52248;SDS011;38541;48.130;8.378;2022-09-13T11:59:56;0.60;;;0.60;;
52248;SDS011;38541;48.130;8.378;2022-09-13T12:04:58;1.23;;;0.60;;
52248;SDS011;38541;48.130;8.378;2022-09-13T12:10:27;0.60;;;0.60;;
52248;SDS011;38541;48.130;8.378;2022-09-13T12:16:17;0.80;;;0.60;;
52248;SDS011;38541;48.130;8.378;2022-09-13T12:18:52;1.02;;;0.60;;
52248;SDS011;38541;48.130;8.378;2022-09-13T12:21:24;0.90;;;0.70;;
52248;SDS011;38541;48.130;8.378;2022-09-13T12:26:28;1.48;;;0.75;;
52248;SDS011;38541;48.130;8.378;2022-09-13T12:29:19;0.73;;;0.73;;
52248;SDS011;38541;48.130;8.378;2022-09-13T12:31:55;0.80;;;0.80;;
52248;SDS011;38541;48.130;8.378;2022-09-13T12:34:27;0.73;;;0.70;;
52248;SDS011;38541;48.130;8.378;2022-09-13T12:37:15;1.50;;;0.60;;
52248;SDS011;38541;48.130;8.378;2022-09-13T12:43:02;0.73;;;0.60;;
52248;SDS011;38541;48.130;8.378;2022-09-13T12:51:54;1.10;;;0.80;;
52248;SDS011;38541;48.130;8.378;2022-09-13T12:57:26;4.72;;;1.40;;
52248;SDS011;38541;48.130;8.378;2022-09-13T13:02:54;1.02;;;0.90;;
52248;SDS011;38541;48.130;8.378;2022-09-13T13:05:32;0.88;;;0.60;;
52248;SDS011;38541;48.130;8.378;2022-09-13T13:08:03;0.73;;;0.73;;
52248;SDS011;38541;48.130;8.378;2022-09-13T13:13:36;0.60;;;0.60;;
52248;SDS011;38541;48.130;8.378;2022-09-13T13:18:48;1.35;;;0.80;;
52248;SDS011;38541;48.130;8.378;2022-09-13T13:29:23;0.90;;;0.85;;
52248;SDS011;38541;48.130;8.378;2022-09-13T13:36:49;0.77;;;0.77;;
52248;SDS011;38541;48.130;8.378;2022-09-13T13:49:53;0.75;;;0.75;;
52248;SDS011;38541;48.130;8.378;2022-09-13T13:52:38;1.10;;;1.00;;
52248;SDS011;38541;48.130;8.378;2022-09-13T13:55:38;0.63;;;0.60;;
52248;SDS011;38541;48.130;8.378;2022-09-13T14:01:19;1.00;;;0.88;;
52248;SDS011;38541;48.130;8.378;2022-09-13T14:04:14;0.73;;;0.73;;
52248;SDS011;38541;48.130;8.378;2022-09-13T14:07:12;1.17;;;0.82;;
52248;SDS011;38541;48.130;8.378;2022-09-13T14:12:31;0.90;;;0.90;;
52248;SDS011;38541;48.130;8.378;2022-09-13T14:20:18;2.22;;;0.95;;
52248;SDS011;38541;48.130;8.378;2022-09-13T14:22:46;2.65;;;0.80;;
52248;SDS011;38541;48.130;8.378;2022-09-13T14:27:46;4.45;;;0.80;;
52248;SDS011;38541;48.130;8.378;2022-09-13T14:30:21;0.57;;;0.50;;
52248;SDS011;38541;48.130;8.378;2022-09-13T14:32:53;0.63;;;0.60;;
52248;SDS011;38541;48.130;8.378;2022-09-13T14:35:28;0.68;;;0.68;;
52248;SDS011;38541;48.130;8.378;2022-09-13T14:38:17;0.80;;;0.80;;
52248;SDS011;38541;48.130;8.378;2022-09-13T14:40:47;0.75;;;0.70;;
52248;SDS011;38541;48.130;8.378;2022-09-13T14:43:15;0.50;;;0.50;;
52248;SDS011;38541;48.130;8.378;2022-09-13T14:45:46;0.57;;;0.57;;
52248;SDS011;38541;48.130;8.378;2022-09-13T14:48:19;0.50;;;0.50;;
52248;SDS011;38541;48.130;8.378;2022-09-13T14:51:33;0.68;;;0.60;;
52248;SDS011;38541;48.130;8.378;2022-09-13T14:53:44;0.50;;;0.50;;
52248;SDS011;38541;48.130;8.378;2022-09-13T14:56:23;0.88;;;0.70;;
52248;SDS011;38541;48.130;8.378;2022-09-13T14:58:58;0.73;;;0.50;;
52248;SDS011;38541;48.130;8.378;2022-09-13T15:01:33;0.70;;;0.70;;
52248;SDS011;38541;48.130;8.378;2022-09-13T15:04:01;0.63;;;0.63;;
52248;SDS011;38541;48.130;8.378;2022-09-13T15:06:31;0.50;;;0.50;;
52248;SDS011;38541;48.130;8.378;2022-09-13T15:11:38;0.88;;;0.50;;
52248;SDS011;38541;48.130;8.378;2022-09-13T15:14:33;0.60;;;0.60;;
52248;SDS011;38541;48.130;8.378;2022-09-13T15:19:36;3.08;;;0.70;;
52248;SDS011;38541;48.130;8.378;2022-09-13T15:22:23;0.63;;;0.63;;
52248;SDS011;38541;48.130;8.378;2022-09-13T15:24:58;0.60;;;0.60;;
52248;SDS011;38541;48.130;8.378;2022-09-13T15:27:28;0.60;;;0.60;;
52248;SDS011;38541;48.130;8.378;2022-09-13T15:29:57;1.95;;;0.70;;
52248;SDS011;38541;48.130;8.378;2022-09-13T15:32:39;0.50;;;0.50;;
52248;SDS011;38541;48.130;8.378;2022-09-13T15:35:17;0.50;;;0.50;;
52248;SDS011;38541;48.130;8.378;2022-09-13T15:37:56;1.02;;;0.55;;
52248;SDS011;38541;48.130;8.378;2022-09-13T15:40:26;6.07;;;0.85;;
52248;SDS011;38541;48.130;8.378;2022-09-13T15:42:54;1.27;;;0.70;;
52248;SDS011;38541;48.130;8.378;2022-09-13T15:45:21;0.75;;;0.65;;
52248;SDS011;38541;48.130;8.378;2022-09-13T15:47:49;0.60;;;0.60;;
52248;SDS011;38541;48.130;8.378;2022-09-13T15:50:18;1.00;;;0.60;;
52248;SDS011;38541;48.130;8.378;2022-09-13T15:52:57;0.52;;;0.50;;
52248;SDS011;38541;48.130;8.378;2022-09-13T15:55:24;0.70;;;0.70;;
52248;SDS011;38541;48.130;8.378;2022-09-13T15:57:53;1.98;;;0.98;;
52248;SDS011;38541;48.130;8.378;2022-09-13T16:00:21;0.70;;;0.70;;
52248;SDS011;38541;48.130;8.378;2022-09-13T16:02:50;0.63;;;0.60;;
52248;SDS011;38541;48.130;8.378;2022-09-13T16:05:17;1.73;;;1.10;;
52248;SDS011;38541;48.130;8.378;2022-09-13T16:07:44;0.88;;;0.88;;
52248;SDS011;38541;48.130;8.378;2022-09-13T16:10:12;2.35;;;0.80;;
52248;SDS011;38541;48.130;8.378;2022-09-13T16:12:45;0.52;;;0.52;;
52248;SDS011;38541;48.130;8.378;2022-09-13T16:15:12;1.77;;;0.75;;
52248;SDS011;38541;48.130;8.378;2022-09-13T16:17:39;0.60;;;0.60;;
52248;SDS011;38541;48.130;8.378;2022-09-13T16:20:06;0.63;;;0.60;;
52248;SDS011;38541;48.130;8.378;2022-09-13T16:22:36;1.42;;;0.65;;
52248;SDS011;38541;48.130;8.378;2022-09-13T16:25:03;1.92;;;1.02;;
52248;SDS011;38541;48.130;8.378;2022-09-13T16:27:29;0.60;;;0.60;;
52248;SDS011;38541;48.130;8.378;2022-09-13T16:29:59;1.10;;;0.40;;
52248;SDS011;38541;48.130;8.378;2022-09-13T16:32:26;2.60;;;0.60;;
52248;SDS011;38541;48.130;8.378;2022-09-13T16:34:52;0.70;;;0.70;;
52248;SDS011;38541;48.130;8.378;2022-09-13T16:37:19;1.30;;;0.70;;
52248;SDS011;38541;48.130;8.378;2022-09-13T16:39:45;1.23;;;0.82;;
52248;SDS011;38541;48.130;8.378;2022-09-13T16:42:13;0.60;;;0.60;;
52248;SDS011;38541;48.130;8.378;2022-09-13T16:44:40;1.17;;;0.80;;
52248;SDS011;38541;48.130;8.378;2022-09-13T16:47:07;0.70;;;0.70;;
52248;SDS011;38541;48.130;8.378;2022-09-13T16:49:34;0.82;;;0.70;;
52248;SDS011;38541;48.130;8.378;2022-09-13T16:52:00;0.77;;;0.77;;
52248;SDS011;38541;48.130;8.378;2022-09-13T16:54:28;2.25;;;0.80;;
52248;SDS011;38541;48.130;8.378;2022-09-13T16:56:56;0.85;;;0.63;;
52248;SDS011;38541;48.130;8.378;2022-09-13T16:59:25;1.20;;;0.90;;
52248;SDS011;38541;48.130;8.378;2022-09-13T17:01:52;0.70;;;0.70;;
52248;SDS011;38541;48.130;8.378;2022-09-13T17:04:19;0.68;;;0.68;;
52248;SDS011;38541;48.130;8.378;2022-09-13T17:06:45;1.08;;;1.08;;
52248;SDS011;38541;48.130;8.378;2022-09-13T17:09:12;4.15;;;0.90;;
52248;SDS011;38541;48.130;8.378;2022-09-13T17:11:40;1.65;;;1.00;;
52248;SDS011;38541;48.130;8.378;2022-09-13T17:14:08;0.77;;;0.77;;
52248;SDS011;38541;48.130;8.378;2022-09-13T17:16:38;0.70;;;0.70;;
52248;SDS011;38541;48.130;8.378;2022-09-13T17:19:11;0.60;;;0.60;;
52248;SDS011;38541;48.130;8.378;2022-09-13T17:21:43;0.80;;;0.80;;
52248;SDS011;38541;48.130;8.378;2022-09-13T17:24:10;0.95;;;0.80;;
52248;SDS011;38541;48.130;8.378;2022-09-13T17:26:39;1.90;;;1.70;;
52248;SDS011;38541;48.130;8.378;2022-09-13T17:29:06;1.60;;;1.50;;
52248;SDS011;38541;48.130;8.378;2022-09-13T17:31:33;1.30;;;1.20;;
52248;SDS011;38541;48.130;8.378;2022-09-13T17:34:00;1.30;;;1.17;;
52248;SDS011;38541;48.130;8.378;2022-09-13T17:36:27;0.93;;;0.93;;
52248;SDS011;38541;48.130;8.378;2022-09-13T17:38:54;1.70;;;1.00;;
52248;SDS011;38541;48.130;8.378;2022-09-13T17:41:22;0.80;;;0.80;;
52248;SDS011;38541;48.130;8.378;2022-09-13T17:43:50;1.20;;;0.90;;
52248;SDS011;38541;48.130;8.378;2022-09-13T17:46:17;1.10;;;1.10;;
52248;SDS011;38541;48.130;8.378;2022-09-13T17:48:48;0.98;;;0.90;;
52248;SDS011;38541;48.130;8.378;2022-09-13T17:51:17;1.10;;;0.90;;
52248;SDS011;38541;48.130;8.378;2022-09-13T17:53:47;0.82;;;0.82;;
52248;SDS011;38541;48.130;8.378;2022-09-13T17:56:20;0.98;;;0.98;;
52248;SDS011;38541;48.130;8.378;2022-09-13T17:58:50;0.80;;;0.80;;
52248;SDS011;38541;48.130;8.378;2022-09-13T18:01:17;1.92;;;1.23;;
52248;SDS011;38541;48.130;8.378;2022-09-13T18:03:44;0.93;;;0.93;;
52248;SDS011;38541;48.130;8.378;2022-09-13T18:06:11;0.93;;;0.88;;
52248;SDS011;38541;48.130;8.378;2022-09-13T18:08:40;1.58;;;0.55;;
52248;SDS011;38541;48.130;8.378;2022-09-13T18:11:08;0.80;;;0.80;;
52248;SDS011;38541;48.130;8.378;2022-09-13T18:13:40;1.15;;;0.90;;
52248;SDS011;38541;48.130;8.378;2022-09-13T18:16:09;1.25;;;0.90;;
52248;SDS011;38541;48.130;8.378;2022-09-13T18:18:45;0.90;;;0.90;;
52248;SDS011;38541;48.130;8.378;2022-09-13T18:21:12;1.27;;;1.00;;
52248;SDS011;38541;48.130;8.378;2022-09-13T18:23:40;0.95;;;0.90;;
52248;SDS011;38541;48.130;8.378;2022-09-13T18:26:07;0.70;;;0.70;;